sensor_id;sensor_type;location;lat;lon;timestamp;P1;durP1;ratioP1;P2;durP2;ratioP2
18748;SDS011;9503;53.560;10.246;2023-05-07T00:01:35;16.63;;;10.27;;
18748;SDS011;9503;53.560;10.246;2023-05-07T00:04:03;19.13;;;10.33;;
18748;SDS011;9503;53.560;10.246;2023-05-07T00:06:31;16.07;;;9.67;;
18748;SDS011;9503;53.560;10.246;2023-05-07T00:08:58;16.23;;;10.47;;
18748;SDS011;9503;53.560;10.246;2023-05-07T00:11:25;16.33;;;10.07;;
18748;SDS011;9503;53.560;10.246;2023-05-07T00:13:52;15.63;;;10.63;;
18748;SDS011;9503;53.560;10.246;2023-05-07T00:16:19;15.90;;;10.40;;
18748;SDS011;9503;53.560;10.246;2023-05-07T00:18:45;17.47;;;10.23;;
18748;SDS011;9503;53.560;10.246;2023-05-07T00:21:13;14.17;;;9.63;;
18748;SDS011;9503;53.560;10.246;2023-05-07T00:23:40;17.07;;;9.80;;
18748;SDS011;9503;53.560;10.246;2023-05-07T00:26:07;15.13;;;9.57;;
18748;SDS011;9503;53.560;10.246;2023-05-07T00:28:33;17.23;;;10.17;;
18748;SDS011;9503;53.560;10.246;2023-05-07T00:31:00;16.20;;;10.10;;
18748;SDS011;9503;53.560;10.246;2023-05-07T00:33:26;17.00;;;10.53;;
18748;SDS011;9503;53.560;10.246;2023-05-07T00:35:53;14.17;;;9.63;;
18748;SDS011;9503;53.560;10.246;2023-05-07T00:38:21;17.27;;;10.00;;
18748;SDS011;9503;53.560;10.246;2023-05-07T00:40:48;14.30;;;9.03;;
18748;SDS011;9503;53.560;10.246;2023-05-07T00:43:15;14.60;;;9.20;;
18748;SDS011;9503;53.560;10.246;2023-05-07T00:45:42;18.43;;;10.37;;
18748;SDS011;9503;53.560;10.246;2023-05-07T00:48:08;14.33;;;9.27;;
18748;SDS011;9503;53.560;10.246;2023-05-07T00:50:35;13.73;;;9.10;;
18748;SDS011;9503;53.560;10.246;2023-05-07T00:53:02;14.60;;;9.77;;
18748;SDS011;9503;53.560;10.246;2023-05-07T00:55:31;15.27;;;8.93;;
18748;SDS011;9503;53.560;10.246;2023-05-07T00:57:58;15.53;;;9.30;;
18748;SDS011;9503;53.560;10.246;2023-05-07T01:00:25;12.60;;;9.03;;
18748;SDS011;9503;53.560;10.246;2023-05-07T01:02:52;12.63;;;8.97;;
18748;SDS011;9503;53.560;10.246;2023-05-07T01:05:19;15.77;;;10.00;;
18748;SDS011;9503;53.560;10.246;2023-05-07T01:07:48;14.73;;;9.33;;
18748;SDS011;9503;53.560;10.246;2023-05-07T01:10:17;14.87;;;9.13;;
18748;SDS011;9503;53.560;10.246;2023-05-07T01:12:46;11.47;;;8.70;;
18748;SDS011;9503;53.560;10.246;2023-05-07T01:15:14;17.57;;;9.63;;
18748;SDS011;9503;53.560;10.246;2023-05-07T01:17:41;14.17;;;9.00;;
18748;SDS011;9503;53.560;10.246;2023-05-07T01:20:09;14.80;;;9.30;;
18748;SDS011;9503;53.560;10.246;2023-05-07T01:22:38;17.40;;;9.63;;
18748;SDS011;9503;53.560;10.246;2023-05-07T01:25:05;13.57;;;9.10;;
18748;SDS011;9503;53.560;10.246;2023-05-07T01:27:33;13.67;;;9.30;;
18748;SDS011;9503;53.560;10.246;2023-05-07T01:30:00;14.77;;;8.57;;
18748;SDS011;9503;53.560;10.246;2023-05-07T01:32:27;13.20;;;8.80;;
18748;SDS011;9503;53.560;10.246;2023-05-07T01:34:58;14.40;;;8.27;;
18748;SDS011;9503;53.560;10.246;2023-05-07T01:37:27;12.37;;;8.50;;
18748;SDS011;9503;53.560;10.246;2023-05-07T01:39:56;12.63;;;8.67;;
18748;SDS011;9503;53.560;10.246;2023-05-07T01:42:23;15.60;;;9.27;;
18748;SDS011;9503;53.560;10.246;2023-05-07T01:44:50;11.53;;;8.50;;
18748;SDS011;9503;53.560;10.246;2023-05-07T01:47:17;11.47;;;7.93;;
18748;SDS011;9503;53.560;10.246;2023-05-07T01:49:44;11.97;;;7.87;;
18748;SDS011;9503;53.560;10.246;2023-05-07T01:52:13;13.43;;;8.63;;
18748;SDS011;9503;53.560;10.246;2023-05-07T01:54:40;11.93;;;8.33;;
18748;SDS011;9503;53.560;10.246;2023-05-07T01:57:09;12.43;;;8.03;;
18748;SDS011;9503;53.560;10.246;2023-05-07T01:59:35;12.90;;;8.00;;
18748;SDS011;9503;53.560;10.246;2023-05-07T02:02:02;12.47;;;7.90;;
18748;SDS011;9503;53.560;10.246;2023-05-07T02:04:28;14.47;;;9.03;;
18748;SDS011;9503;53.560;10.246;2023-05-07T02:06:55;12.93;;;8.33;;
18748;SDS011;9503;53.560;10.246;2023-05-07T02:09:22;13.23;;;8.87;;
18748;SDS011;9503;53.560;10.246;2023-05-07T02:11:48;11.70;;;8.27;;
18748;SDS011;9503;53.560;10.246;2023-05-07T02:14:16;12.83;;;8.70;;
18748;SDS011;9503;53.560;10.246;2023-05-07T02:16:43;14.23;;;8.53;;
18748;SDS011;9503;53.560;10.246;2023-05-07T02:19:09;13.10;;;9.47;;
18748;SDS011;9503;53.560;10.246;2023-05-07T02:21:36;14.57;;;8.80;;
18748;SDS011;9503;53.560;10.246;2023-05-07T02:24:02;12.13;;;8.00;;
18748;SDS011;9503;53.560;10.246;2023-05-07T02:26:29;15.67;;;9.43;;
18748;SDS011;9503;53.560;10.246;2023-05-07T02:28:56;13.70;;;8.40;;
18748;SDS011;9503;53.560;10.246;2023-05-07T02:31:24;12.90;;;8.30;;
18748;SDS011;9503;53.560;10.246;2023-05-07T02:33:50;12.73;;;9.07;;
18748;SDS011;9503;53.560;10.246;2023-05-07T02:36:17;16.00;;;9.33;;
18748;SDS011;9503;53.560;10.246;2023-05-07T02:38:44;17.10;;;9.70;;
18748;SDS011;9503;53.560;10.246;2023-05-07T02:41:10;14.10;;;9.37;;
18748;SDS011;9503;53.560;10.246;2023-05-07T02:43:37;13.97;;;9.23;;
18748;SDS011;9503;53.560;10.246;2023-05-07T02:46:04;17.97;;;9.70;;
18748;SDS011;9503;53.560;10.246;2023-05-07T02:48:32;14.33;;;9.27;;
18748;SDS011;9503;53.560;10.246;2023-05-07T02:50:59;13.40;;;8.67;;
18748;SDS011;9503;53.560;10.246;2023-05-07T02:53:26;16.10;;;9.87;;
18748;SDS011;9503;53.560;10.246;2023-05-07T02:55:54;12.73;;;8.87;;
18748;SDS011;9503;53.560;10.246;2023-05-07T02:58:21;15.53;;;8.73;;
18748;SDS011;9503;53.560;10.246;2023-05-07T03:00:48;13.53;;;9.10;;
18748;SDS011;9503;53.560;10.246;2023-05-07T03:03:15;14.77;;;9.30;;
18748;SDS011;9503;53.560;10.246;2023-05-07T03:05:43;13.00;;;8.40;;
18748;SDS011;9503;53.560;10.246;2023-05-07T03:08:10;12.60;;;8.23;;
18748;SDS011;9503;53.560;10.246;2023-05-07T03:10:36;14.00;;;9.40;;
18748;SDS011;9503;53.560;10.246;2023-05-07T03:13:03;13.73;;;8.73;;
18748;SDS011;9503;53.560;10.246;2023-05-07T03:15:30;11.37;;;8.77;;
18748;SDS011;9503;53.560;10.246;2023-05-07T03:17:57;14.90;;;9.17;;
18748;SDS011;9503;53.560;10.246;2023-05-07T03:20:23;12.30;;;8.67;;
18748;SDS011;9503;53.560;10.246;2023-05-07T03:22:51;13.90;;;8.80;;
18748;SDS011;9503;53.560;10.246;2023-05-07T03:25:18;12.03;;;8.57;;
18748;SDS011;9503;53.560;10.246;2023-05-07T03:27:44;12.33;;;8.73;;
18748;SDS011;9503;53.560;10.246;2023-05-07T03:30:11;13.97;;;9.40;;
18748;SDS011;9503;53.560;10.246;2023-05-07T03:32:38;12.90;;;8.77;;
18748;SDS011;9503;53.560;10.246;2023-05-07T03:35:05;14.90;;;8.33;;
18748;SDS011;9503;53.560;10.246;2023-05-07T03:37:32;12.63;;;9.07;;
18748;SDS011;9503;53.560;10.246;2023-05-07T03:40:00;14.67;;;8.73;;
18748;SDS011;9503;53.560;10.246;2023-05-07T03:42:27;12.40;;;8.30;;
18748;SDS011;9503;53.560;10.246;2023-05-07T03:44:54;13.77;;;8.80;;
18748;SDS011;9503;53.560;10.246;2023-05-07T03:47:21;12.20;;;8.83;;
18748;SDS011;9503;53.560;10.246;2023-05-07T03:49:48;13.27;;;8.23;;
18748;SDS011;9503;53.560;10.246;2023-05-07T03:52:15;13.73;;;8.43;;
18748;SDS011;9503;53.560;10.246;2023-05-07T03:54:47;12.37;;;8.70;;
18748;SDS011;9503;53.560;10.246;2023-05-07T03:57:15;11.90;;;8.17;;
18748;SDS011;9503;53.560;10.246;2023-05-07T03:59:42;12.57;;;7.90;;
18748;SDS011;9503;53.560;10.246;2023-05-07T04:02:08;19.30;;;8.60;;
18748;SDS011;9503;53.560;10.246;2023-05-07T04:04:35;12.10;;;8.47;;
18748;SDS011;9503;53.560;10.246;2023-05-07T04:07:01;11.53;;;8.03;;
18748;SDS011;9503;53.560;10.246;2023-05-07T04:09:29;12.33;;;8.17;;
18748;SDS011;9503;53.560;10.246;2023-05-07T04:11:56;11.33;;;8.50;;
18748;SDS011;9503;53.560;10.246;2023-05-07T04:14:24;14.37;;;9.00;;
18748;SDS011;9503;53.560;10.246;2023-05-07T04:16:50;11.53;;;8.17;;
18748;SDS011;9503;53.560;10.246;2023-05-07T04:19:17;14.57;;;9.10;;
18748;SDS011;9503;53.560;10.246;2023-05-07T04:21:43;13.10;;;8.40;;
18748;SDS011;9503;53.560;10.246;2023-05-07T04:24:10;14.40;;;8.40;;
18748;SDS011;9503;53.560;10.246;2023-05-07T04:26:36;12.20;;;8.17;;
18748;SDS011;9503;53.560;10.246;2023-05-07T04:29:03;14.80;;;8.10;;
18748;SDS011;9503;53.560;10.246;2023-05-07T04:31:31;10.97;;;7.67;;
18748;SDS011;9503;53.560;10.246;2023-05-07T04:33:58;10.93;;;7.50;;
18748;SDS011;9503;53.560;10.246;2023-05-07T04:36:24;11.77;;;7.53;;
18748;SDS011;9503;53.560;10.246;2023-05-07T04:38:52;9.97;;;7.37;;
18748;SDS011;9503;53.560;10.246;2023-05-07T04:41:19;10.93;;;7.23;;
18748;SDS011;9503;53.560;10.246;2023-05-07T04:43:45;10.07;;;6.60;;
18748;SDS011;9503;53.560;10.246;2023-05-07T04:46:12;11.00;;;6.90;;
18748;SDS011;9503;53.560;10.246;2023-05-07T04:48:40;10.33;;;6.90;;
18748;SDS011;9503;53.560;10.246;2023-05-07T04:51:07;10.23;;;6.87;;
18748;SDS011;9503;53.560;10.246;2023-05-07T04:53:33;9.70;;;6.40;;
18748;SDS011;9503;53.560;10.246;2023-05-07T04:56:00;10.70;;;6.83;;
18748;SDS011;9503;53.560;10.246;2023-05-07T04:58:26;9.93;;;6.73;;
18748;SDS011;9503;53.560;10.246;2023-05-07T05:00:56;9.87;;;6.63;;
18748;SDS011;9503;53.560;10.246;2023-05-07T05:03:23;10.43;;;6.37;;
18748;SDS011;9503;53.560;10.246;2023-05-07T05:05:51;8.03;;;6.23;;
18748;SDS011;9503;53.560;10.246;2023-05-07T05:08:18;9.77;;;6.27;;
18748;SDS011;9503;53.560;10.246;2023-05-07T05:10:45;10.77;;;7.17;;
18748;SDS011;9503;53.560;10.246;2023-05-07T05:13:13;9.07;;;6.30;;
18748;SDS011;9503;53.560;10.246;2023-05-07T05:15:40;10.37;;;6.73;;
18748;SDS011;9503;53.560;10.246;2023-05-07T05:18:06;9.23;;;6.60;;
18748;SDS011;9503;53.560;10.246;2023-05-07T05:20:33;11.67;;;7.07;;
18748;SDS011;9503;53.560;10.246;2023-05-07T05:23:01;10.63;;;7.47;;
18748;SDS011;9503;53.560;10.246;2023-05-07T05:25:28;8.63;;;6.53;;
18748;SDS011;9503;53.560;10.246;2023-05-07T05:27:54;10.60;;;7.20;;
18748;SDS011;9503;53.560;10.246;2023-05-07T05:30:21;11.07;;;6.90;;
18748;SDS011;9503;53.560;10.246;2023-05-07T05:32:48;12.07;;;7.60;;
18748;SDS011;9503;53.560;10.246;2023-05-07T05:35:14;10.37;;;7.63;;
18748;SDS011;9503;53.560;10.246;2023-05-07T05:37:41;11.33;;;7.33;;
18748;SDS011;9503;53.560;10.246;2023-05-07T05:40:10;10.00;;;6.87;;
18748;SDS011;9503;53.560;10.246;2023-05-07T05:42:37;11.03;;;7.73;;
18748;SDS011;9503;53.560;10.246;2023-05-07T05:45:04;9.33;;;6.97;;
18748;SDS011;9503;53.560;10.246;2023-05-07T05:47:31;10.77;;;7.43;;
18748;SDS011;9503;53.560;10.246;2023-05-07T05:49:58;10.57;;;7.50;;
18748;SDS011;9503;53.560;10.246;2023-05-07T05:52:24;9.53;;;6.23;;
18748;SDS011;9503;53.560;10.246;2023-05-07T05:54:51;9.57;;;7.00;;
18748;SDS011;9503;53.560;10.246;2023-05-07T05:57:19;11.93;;;7.27;;
18748;SDS011;9503;53.560;10.246;2023-05-07T05:59:46;10.97;;;6.27;;
18748;SDS011;9503;53.560;10.246;2023-05-07T06:02:12;8.30;;;6.37;;
18748;SDS011;9503;53.560;10.246;2023-05-07T06:04:39;10.00;;;6.37;;
18748;SDS011;9503;53.560;10.246;2023-05-07T06:07:07;8.10;;;6.23;;
18748;SDS011;9503;53.560;10.246;2023-05-07T06:09:34;9.83;;;6.80;;
18748;SDS011;9503;53.560;10.246;2023-05-07T06:12:00;9.17;;;6.60;;
18748;SDS011;9503;53.560;10.246;2023-05-07T06:14:28;8.27;;;6.23;;
18748;SDS011;9503;53.560;10.246;2023-05-07T06:16:55;7.93;;;5.80;;
18748;SDS011;9503;53.560;10.246;2023-05-07T06:19:22;8.83;;;6.60;;
18748;SDS011;9503;53.560;10.246;2023-05-07T06:21:49;9.33;;;6.03;;
18748;SDS011;9503;53.560;10.246;2023-05-07T06:24:15;10.50;;;6.63;;
18748;SDS011;9503;53.560;10.246;2023-05-07T06:26:42;8.57;;;6.50;;
18748;SDS011;9503;53.560;10.246;2023-05-07T06:29:08;13.10;;;6.33;;
18748;SDS011;9503;53.560;10.246;2023-05-07T06:31:36;9.90;;;6.20;;
18748;SDS011;9503;53.560;10.246;2023-05-07T06:34:03;8.77;;;5.83;;
18748;SDS011;9503;53.560;10.246;2023-05-07T06:36:30;9.83;;;6.50;;
18748;SDS011;9503;53.560;10.246;2023-05-07T06:38:56;8.53;;;5.90;;
18748;SDS011;9503;53.560;10.246;2023-05-07T06:41:23;8.63;;;5.80;;
18748;SDS011;9503;53.560;10.246;2023-05-07T06:43:50;8.63;;;6.00;;
18748;SDS011;9503;53.560;10.246;2023-05-07T06:46:17;7.60;;;5.80;;
18748;SDS011;9503;53.560;10.246;2023-05-07T06:48:45;8.20;;;5.83;;
18748;SDS011;9503;53.560;10.246;2023-05-07T06:51:12;8.97;;;6.13;;
18748;SDS011;9503;53.560;10.246;2023-05-07T06:53:38;7.33;;;5.60;;
18748;SDS011;9503;53.560;10.246;2023-05-07T06:56:05;8.03;;;5.43;;
18748;SDS011;9503;53.560;10.246;2023-05-07T06:58:32;7.87;;;5.57;;
18748;SDS011;9503;53.560;10.246;2023-05-07T07:00:59;6.27;;;5.20;;
18748;SDS011;9503;53.560;10.246;2023-05-07T07:03:25;11.20;;;5.63;;
18748;SDS011;9503;53.560;10.246;2023-05-07T07:05:53;7.33;;;5.50;;
18748;SDS011;9503;53.560;10.246;2023-05-07T07:08:21;8.43;;;6.10;;
18748;SDS011;9503;53.560;10.246;2023-05-07T07:10:48;7.63;;;5.50;;
18748;SDS011;9503;53.560;10.246;2023-05-07T07:13:15;7.13;;;5.40;;
18748;SDS011;9503;53.560;10.246;2023-05-07T07:15:41;6.87;;;5.80;;
18748;SDS011;9503;53.560;10.246;2023-05-07T07:18:09;5.97;;;5.00;;
18748;SDS011;9503;53.560;10.246;2023-05-07T07:20:35;5.33;;;4.57;;
18748;SDS011;9503;53.560;10.246;2023-05-07T07:23:03;7.33;;;5.53;;
18748;SDS011;9503;53.560;10.246;2023-05-07T07:25:30;7.83;;;5.30;;
18748;SDS011;9503;53.560;10.246;2023-05-07T07:27:57;8.63;;;5.40;;
18748;SDS011;9503;53.560;10.246;2023-05-07T07:30:23;11.30;;;4.97;;
18748;SDS011;9503;53.560;10.246;2023-05-07T07:32:51;9.40;;;5.57;;
18748;SDS011;9503;53.560;10.246;2023-05-07T07:35:17;6.13;;;5.30;;
18748;SDS011;9503;53.560;10.246;2023-05-07T07:37:44;6.20;;;5.20;;
18748;SDS011;9503;53.560;10.246;2023-05-07T07:40:12;6.87;;;5.20;;
18748;SDS011;9503;53.560;10.246;2023-05-07T07:42:40;7.23;;;5.33;;
18748;SDS011;9503;53.560;10.246;2023-05-07T07:45:07;6.10;;;4.97;;
18748;SDS011;9503;53.560;10.246;2023-05-07T07:47:34;8.00;;;5.63;;
18748;SDS011;9503;53.560;10.246;2023-05-07T07:50:01;8.87;;;5.23;;
18748;SDS011;9503;53.560;10.246;2023-05-07T07:52:27;8.50;;;5.33;;
18748;SDS011;9503;53.560;10.246;2023-05-07T07:54:54;7.07;;;5.50;;
18748;SDS011;9503;53.560;10.246;2023-05-07T07:57:22;7.37;;;5.27;;
18748;SDS011;9503;53.560;10.246;2023-05-07T07:59:48;7.67;;;5.10;;
18748;SDS011;9503;53.560;10.246;2023-05-07T08:02:15;6.97;;;5.40;;
18748;SDS011;9503;53.560;10.246;2023-05-07T08:04:42;6.77;;;5.20;;
18748;SDS011;9503;53.560;10.246;2023-05-07T08:07:08;6.73;;;5.47;;
18748;SDS011;9503;53.560;10.246;2023-05-07T08:09:35;9.10;;;5.37;;
18748;SDS011;9503;53.560;10.246;2023-05-07T08:12:02;6.53;;;5.43;;
18748;SDS011;9503;53.560;10.246;2023-05-07T08:14:31;9.07;;;5.17;;
18748;SDS011;9503;53.560;10.246;2023-05-07T08:16:58;6.27;;;4.97;;
18748;SDS011;9503;53.560;10.246;2023-05-07T08:19:24;7.47;;;5.60;;
18748;SDS011;9503;53.560;10.246;2023-05-07T08:21:51;6.67;;;5.20;;
18748;SDS011;9503;53.560;10.246;2023-05-07T08:24:17;7.43;;;4.70;;
18748;SDS011;9503;53.560;10.246;2023-05-07T08:26:44;5.43;;;4.73;;
18748;SDS011;9503;53.560;10.246;2023-05-07T08:29:11;7.23;;;5.20;;
18748;SDS011;9503;53.560;10.246;2023-05-07T08:31:39;7.10;;;5.40;;
18748;SDS011;9503;53.560;10.246;2023-05-07T08:34:05;9.03;;;5.60;;
18748;SDS011;9503;53.560;10.246;2023-05-07T08:36:32;5.93;;;4.93;;
18748;SDS011;9503;53.560;10.246;2023-05-07T08:38:59;6.33;;;5.23;;
18748;SDS011;9503;53.560;10.246;2023-05-07T08:41:26;6.50;;;4.90;;
18748;SDS011;9503;53.560;10.246;2023-05-07T08:43:52;6.70;;;5.00;;
18748;SDS011;9503;53.560;10.246;2023-05-07T08:46:23;8.00;;;4.70;;
18748;SDS011;9503;53.560;10.246;2023-05-07T08:48:53;5.20;;;4.47;;
18748;SDS011;9503;53.560;10.246;2023-05-07T08:51:20;8.50;;;4.73;;
18748;SDS011;9503;53.560;10.246;2023-05-07T08:53:48;6.33;;;4.37;;
18748;SDS011;9503;53.560;10.246;2023-05-07T08:56:15;4.60;;;4.10;;
18748;SDS011;9503;53.560;10.246;2023-05-07T08:58:43;5.97;;;3.90;;
18748;SDS011;9503;53.560;10.246;2023-05-07T09:01:16;4.97;;;3.97;;
18748;SDS011;9503;53.560;10.246;2023-05-07T09:03:43;7.40;;;4.00;;
18748;SDS011;9503;53.560;10.246;2023-05-07T09:06:13;6.27;;;4.30;;
18748;SDS011;9503;53.560;10.246;2023-05-07T09:08:39;6.10;;;4.60;;
18748;SDS011;9503;53.560;10.246;2023-05-07T09:11:06;6.33;;;4.60;;
18748;SDS011;9503;53.560;10.246;2023-05-07T09:13:33;5.30;;;4.60;;
18748;SDS011;9503;53.560;10.246;2023-05-07T09:16:06;6.90;;;4.57;;
18748;SDS011;9503;53.560;10.246;2023-05-07T09:18:40;5.13;;;4.43;;
18748;SDS011;9503;53.560;10.246;2023-05-07T09:21:09;8.23;;;4.53;;
18748;SDS011;9503;53.560;10.246;2023-05-07T09:23:37;6.63;;;4.70;;
18748;SDS011;9503;53.560;10.246;2023-05-07T09:26:04;6.43;;;4.13;;
18748;SDS011;9503;53.560;10.246;2023-05-07T09:28:33;8.97;;;4.93;;
18748;SDS011;9503;53.560;10.246;2023-05-07T09:31:00;6.17;;;4.37;;
18748;SDS011;9503;53.560;10.246;2023-05-07T09:33:27;4.73;;;4.10;;
18748;SDS011;9503;53.560;10.246;2023-05-07T09:35:54;7.57;;;4.53;;
18748;SDS011;9503;53.560;10.246;2023-05-07T09:38:21;6.37;;;4.13;;
18748;SDS011;9503;53.560;10.246;2023-05-07T09:40:52;6.60;;;3.97;;
18748;SDS011;9503;53.560;10.246;2023-05-07T09:43:31;4.97;;;3.90;;
18748;SDS011;9503;53.560;10.246;2023-05-07T09:45:58;4.57;;;3.77;;
18748;SDS011;9503;53.560;10.246;2023-05-07T09:48:28;7.50;;;4.23;;
18748;SDS011;9503;53.560;10.246;2023-05-07T09:50:56;5.67;;;4.53;;
18748;SDS011;9503;53.560;10.246;2023-05-07T09:53:27;4.43;;;4.03;;
18748;SDS011;9503;53.560;10.246;2023-05-07T09:55:56;5.57;;;4.50;;
18748;SDS011;9503;53.560;10.246;2023-05-07T09:58:24;6.00;;;4.30;;
18748;SDS011;9503;53.560;10.246;2023-05-07T10:00:52;6.03;;;4.10;;
18748;SDS011;9503;53.560;10.246;2023-05-07T10:03:18;5.33;;;4.03;;
18748;SDS011;9503;53.560;10.246;2023-05-07T10:05:46;4.80;;;4.27;;
18748;SDS011;9503;53.560;10.246;2023-05-07T10:08:13;6.23;;;4.17;;
18748;SDS011;9503;53.560;10.246;2023-05-07T10:10:41;5.03;;;4.10;;
18748;SDS011;9503;53.560;10.246;2023-05-07T10:13:13;5.33;;;4.13;;
18748;SDS011;9503;53.560;10.246;2023-05-07T10:15:39;5.33;;;4.37;;
18748;SDS011;9503;53.560;10.246;2023-05-07T10:18:07;5.40;;;3.93;;
18748;SDS011;9503;53.560;10.246;2023-05-07T10:20:34;4.50;;;3.67;;
18748;SDS011;9503;53.560;10.246;2023-05-07T10:23:03;5.50;;;4.30;;
18748;SDS011;9503;53.560;10.246;2023-05-07T10:25:30;4.80;;;4.30;;
18748;SDS011;9503;53.560;10.246;2023-05-07T10:27:59;3.90;;;3.43;;
18748;SDS011;9503;53.560;10.246;2023-05-07T10:30:34;4.40;;;4.00;;
18748;SDS011;9503;53.560;10.246;2023-05-07T10:33:06;4.93;;;3.83;;
18748;SDS011;9503;53.560;10.246;2023-05-07T10:35:37;3.90;;;3.50;;
18748;SDS011;9503;53.560;10.246;2023-05-07T10:38:08;4.20;;;3.80;;
18748;SDS011;9503;53.560;10.246;2023-05-07T10:40:35;4.57;;;4.07;;
18748;SDS011;9503;53.560;10.246;2023-05-07T10:43:03;4.50;;;4.00;;
18748;SDS011;9503;53.560;10.246;2023-05-07T10:45:31;4.20;;;3.80;;
18748;SDS011;9503;53.560;10.246;2023-05-07T10:48:05;5.00;;;4.17;;
18748;SDS011;9503;53.560;10.246;2023-05-07T10:50:32;4.23;;;3.60;;
18748;SDS011;9503;53.560;10.246;2023-05-07T10:55:51;5.40;;;3.83;;
18748;SDS011;9503;53.560;10.246;2023-05-07T10:58:38;4.47;;;3.57;;
18748;SDS011;9503;53.560;10.246;2023-05-07T11:01:06;4.13;;;3.73;;
18748;SDS011;9503;53.560;10.246;2023-05-07T11:03:33;5.43;;;3.83;;
18748;SDS011;9503;53.560;10.246;2023-05-07T11:06:09;3.97;;;3.60;;
18748;SDS011;9503;53.560;10.246;2023-05-07T11:08:52;4.30;;;3.33;;
18748;SDS011;9503;53.560;10.246;2023-05-07T11:11:20;3.40;;;3.10;;
18748;SDS011;9503;53.560;10.246;2023-05-07T11:14:13;3.25;;;2.95;;
18748;SDS011;9503;53.560;10.246;2023-05-07T11:16:41;2.95;;;2.75;;
18748;SDS011;9503;53.560;10.246;2023-05-07T11:19:09;4.10;;;3.03;;
18748;SDS011;9503;53.560;10.246;2023-05-07T11:21:36;2.83;;;2.63;;
18748;SDS011;9503;53.560;10.246;2023-05-07T11:24:05;4.33;;;2.70;;
18748;SDS011;9503;53.560;10.246;2023-05-07T11:26:46;3.92;;;3.10;;
18748;SDS011;9503;53.560;10.246;2023-05-07T11:29:14;3.20;;;2.90;;
18748;SDS011;9503;53.560;10.246;2023-05-07T11:31:43;4.13;;;2.80;;
18748;SDS011;9503;53.560;10.246;2023-05-07T11:34:14;3.20;;;2.90;;
18748;SDS011;9503;53.560;10.246;2023-05-07T11:36:46;3.72;;;3.25;;
18748;SDS011;9503;53.560;10.246;2023-05-07T11:39:23;4.82;;;3.15;;
18748;SDS011;9503;53.560;10.246;2023-05-07T11:41:51;3.83;;;3.45;;
18748;SDS011;9503;53.560;10.246;2023-05-07T11:44:17;5.28;;;2.90;;
18748;SDS011;9503;53.560;10.246;2023-05-07T11:46:45;3.83;;;2.95;;
18748;SDS011;9503;53.560;10.246;2023-05-07T11:49:14;3.08;;;2.88;;
18748;SDS011;9503;53.560;10.246;2023-05-07T11:51:41;5.63;;;3.10;;
18748;SDS011;9503;53.560;10.246;2023-05-07T11:54:08;2.95;;;2.75;;
18748;SDS011;9503;53.560;10.246;2023-05-07T11:56:36;2.83;;;2.63;;
18748;SDS011;9503;53.560;10.246;2023-05-07T11:59:03;5.07;;;2.83;;
18748;SDS011;9503;53.560;10.246;2023-05-07T12:01:30;2.85;;;2.65;;
18748;SDS011;9503;53.560;10.246;2023-05-07T12:03:58;2.80;;;2.60;;
18748;SDS011;9503;53.560;10.246;2023-05-07T12:06:29;2.95;;;2.50;;
18748;SDS011;9503;53.560;10.246;2023-05-07T12:08:56;3.15;;;2.40;;
18748;SDS011;9503;53.560;10.246;2023-05-07T12:11:23;3.00;;;2.20;;
18748;SDS011;9503;53.560;10.246;2023-05-07T12:13:50;2.63;;;2.42;;
18748;SDS011;9503;53.560;10.246;2023-05-07T12:16:17;2.20;;;2.00;;
18748;SDS011;9503;53.560;10.246;2023-05-07T12:18:45;2.65;;;2.40;;
18748;SDS011;9503;53.560;10.246;2023-05-07T12:21:14;2.47;;;2.28;;
18748;SDS011;9503;53.560;10.246;2023-05-07T12:23:42;2.50;;;2.30;;
18748;SDS011;9503;53.560;10.246;2023-05-07T12:26:09;3.38;;;2.30;;
18748;SDS011;9503;53.560;10.246;2023-05-07T12:28:36;2.22;;;2.13;;
18748;SDS011;9503;53.560;10.246;2023-05-07T12:31:03;3.38;;;2.30;;
18748;SDS011;9503;53.560;10.246;2023-05-07T12:33:31;2.60;;;2.28;;
18748;SDS011;9503;53.560;10.246;2023-05-07T12:35:58;2.97;;;2.20;;
18748;SDS011;9503;53.560;10.246;2023-05-07T12:38:33;2.88;;;2.38;;
18748;SDS011;9503;53.560;10.246;2023-05-07T12:41:01;5.68;;;2.50;;
18748;SDS011;9503;53.560;10.246;2023-05-07T12:43:28;2.70;;;2.13;;
18748;SDS011;9503;53.560;10.246;2023-05-07T12:45:56;2.70;;;2.50;;
18748;SDS011;9503;53.560;10.246;2023-05-07T12:48:24;2.00;;;1.90;;
18748;SDS011;9503;53.560;10.246;2023-05-07T12:50:52;2.58;;;2.13;;
18748;SDS011;9503;53.560;10.246;2023-05-07T12:53:20;2.65;;;2.17;;
18748;SDS011;9503;53.560;10.246;2023-05-07T12:55:49;2.72;;;2.10;;
18748;SDS011;9503;53.560;10.246;2023-05-07T12:58:17;2.35;;;2.20;;
18748;SDS011;9503;53.560;10.246;2023-05-07T13:00:45;2.40;;;2.20;;
18748;SDS011;9503;53.560;10.246;2023-05-07T13:03:20;2.38;;;2.17;;
18748;SDS011;9503;53.560;10.246;2023-05-07T13:05:48;3.83;;;2.00;;
18748;SDS011;9503;53.560;10.246;2023-05-07T13:08:22;2.25;;;1.95;;
18748;SDS011;9503;53.560;10.246;2023-05-07T13:10:51;3.58;;;2.08;;
18748;SDS011;9503;53.560;10.246;2023-05-07T13:13:18;2.55;;;2.20;;
18748;SDS011;9503;53.560;10.246;2023-05-07T13:15:45;2.30;;;2.10;;
18748;SDS011;9503;53.560;10.246;2023-05-07T13:18:12;1.90;;;1.80;;
18748;SDS011;9503;53.560;10.246;2023-05-07T13:20:38;1.98;;;1.88;;
18748;SDS011;9503;53.560;10.246;2023-05-07T13:23:10;3.40;;;2.10;;
18748;SDS011;9503;53.560;10.246;2023-05-07T13:25:37;3.95;;;2.45;;
18748;SDS011;9503;53.560;10.246;2023-05-07T13:28:05;2.33;;;2.13;;
18748;SDS011;9503;53.560;10.246;2023-05-07T13:30:32;2.58;;;1.83;;
18748;SDS011;9503;53.560;10.246;2023-05-07T13:32:58;2.72;;;2.53;;
18748;SDS011;9503;53.560;10.246;2023-05-07T13:35:25;2.30;;;2.10;;
18748;SDS011;9503;53.560;10.246;2023-05-07T13:37:52;2.17;;;2.00;;
18748;SDS011;9503;53.560;10.246;2023-05-07T13:40:19;2.38;;;2.20;;
18748;SDS011;9503;53.560;10.246;2023-05-07T13:42:49;2.00;;;1.90;;
18748;SDS011;9503;53.560;10.246;2023-05-07T13:45:17;2.92;;;2.30;;
18748;SDS011;9503;53.560;10.246;2023-05-07T13:47:44;2.33;;;2.13;;
18748;SDS011;9503;53.560;10.246;2023-05-07T13:50:11;3.17;;;1.90;;
18748;SDS011;9503;53.560;10.246;2023-05-07T13:52:40;5.22;;;2.67;;
18748;SDS011;9503;53.560;10.246;2023-05-07T13:55:08;2.42;;;2.08;;
18748;SDS011;9503;53.560;10.246;2023-05-07T13:57:35;2.67;;;2.10;;
18748;SDS011;9503;53.560;10.246;2023-05-07T14:00:01;2.85;;;1.90;;
18748;SDS011;9503;53.560;10.246;2023-05-07T14:02:31;2.45;;;2.00;;
18748;SDS011;9503;53.560;10.246;2023-05-07T14:04:57;2.08;;;1.88;;
18748;SDS011;9503;53.560;10.246;2023-05-07T14:07:24;3.22;;;1.80;;
18748;SDS011;9503;53.560;10.246;2023-05-07T14:09:51;2.30;;;2.10;;
18748;SDS011;9503;53.560;10.246;2023-05-07T14:12:18;2.22;;;2.03;;
18748;SDS011;9503;53.560;10.246;2023-05-07T14:14:44;3.15;;;2.10;;
18748;SDS011;9503;53.560;10.246;2023-05-07T14:17:11;6.43;;;2.35;;
18748;SDS011;9503;53.560;10.246;2023-05-07T14:19:40;3.05;;;1.95;;
18748;SDS011;9503;53.560;10.246;2023-05-07T14:22:06;3.15;;;1.83;;
18748;SDS011;9503;53.560;10.246;2023-05-07T14:24:33;3.30;;;1.90;;
18748;SDS011;9503;53.560;10.246;2023-05-07T14:27:00;2.10;;;1.90;;
18748;SDS011;9503;53.560;10.246;2023-05-07T14:29:26;1.88;;;1.73;;
18748;SDS011;9503;53.560;10.246;2023-05-07T14:31:53;1.92;;;1.77;;
18748;SDS011;9503;53.560;10.246;2023-05-07T14:34:20;2.28;;;2.08;;
18748;SDS011;9503;53.560;10.246;2023-05-07T14:36:48;2.15;;;1.80;;
18748;SDS011;9503;53.560;10.246;2023-05-07T14:39:14;1.98;;;1.83;;
18748;SDS011;9503;53.560;10.246;2023-05-07T14:41:41;2.17;;;1.92;;
18748;SDS011;9503;53.560;10.246;2023-05-07T14:44:07;2.60;;;1.83;;
18748;SDS011;9503;53.560;10.246;2023-05-07T14:46:34;3.92;;;2.00;;
18748;SDS011;9503;53.560;10.246;2023-05-07T14:49:01;2.10;;;2.00;;